Time;durP1;ratioP1;P1;durP2;ratioP2;P2;SDS_P1;SDS_P2;PMS_P1;PMS_P2;Temp;Humidity;BMP_temperature;BMP_pressure;BME280_temperature;BME280_humidity;BME280_pressure;Samples;Min_cycle;Max_cycle;Signal;HPM_P1;HPM_P2
2021/10/06 07:51:31;;;;;;;3.03;0.87;;;11.60;99.90;;;;;;4821870;23;20711;-74
2021/10/06 07:53:58;;;;;;;1.90;0.70;;;11.60;99.90;;;;;;4983384;28;20215;-74
2021/10/06 07:56:25;;;;;;;5.50;0.67;;;11.60;99.90;;;;;;4990521;28;20236;-74
2021/10/06 07:58:51;;;;;;;1.00;0.50;;;11.50;99.90;;;;;;4986846;28;20220;-71
2021/10/06 08:01:19;;;;;;;2.27;0.87;;;11.60;99.90;;;;;;4957995;29;20219;-71
2021/10/06 08:03:46;;;;;;;2.40;0.70;;;11.70;99.90;;;;;;4958503;28;20223;-74
2021/10/06 08:06:12;;;;;;;1.00;0.47;;;11.80;99.90;;;;;;4995038;28;20244;-76
2021/10/06 08:08:41;;;;;;;0.70;0.70;;;11.90;99.90;;;;;;4980114;28;20693;-74
2021/10/06 08:11:08;;;;;;;3.07;0.83;;;11.90;99.90;;;;;;4975393;28;20213;-74
2021/10/06 08:13:34;;;;;;;1.90;0.67;;;12.00;99.90;;;;;;4975572;28;20636;-74
2021/10/06 08:16:01;;;;;;;5.37;1.03;;;12.10;99.90;;;;;;4975406;28;20314;-75
2021/10/06 08:18:28;;;;;;;2.57;0.80;;;12.10;99.90;;;;;;4974715;28;20227;-74
2021/10/06 08:20:57;;;;;;;2.17;0.77;;;12.30;99.90;;;;;;4975101;28;20298;-74
2021/10/06 08:23:26;;;;;;;2.60;1.00;;;12.30;99.90;;;;;;4974963;28;20569;-75
2021/10/06 08:25:54;;;;;;;2.53;0.70;;;12.30;99.90;;;;;;4974657;28;20669;-74
2021/10/06 08:28:21;;;;;;;4.13;0.97;;;12.30;99.90;;;;;;4975109;28;20231;-73
2021/10/06 08:30:49;;;;;;;1.63;0.80;;;12.30;99.90;;;;;;4975481;28;20211;-77
2021/10/06 08:33:16;;;;;;;2.47;0.70;;;12.30;99.90;;;;;;4974592;28;20217;-75
2021/10/06 08:35:43;;;;;;;9.53;2.60;;;12.30;99.90;;;;;;4974842;28;20321;-75
2021/10/06 08:38:10;;;;;;;5.93;1.00;;;12.40;99.90;;;;;;4974310;28;20717;-75
2021/10/06 08:40:39;;;;;;;2.43;0.90;;;12.50;99.90;;;;;;4967853;28;20207;-74
2021/10/06 08:43:09;;;;;;;2.00;0.80;;;12.40;99.90;;;;;;4973777;28;20217;-75
2021/10/06 08:45:37;;;;;;;0.60;0.60;;;12.50;99.90;;;;;;4992090;28;20199;-75
2021/10/06 08:48:05;;;;;;;2.90;0.67;;;12.30;99.90;;;;;;4995534;28;20288;-76
2021/10/06 08:50:33;;;;;;;1.30;0.70;;;12.30;99.90;;;;;;4995134;28;20270;-75
2021/10/06 08:53:00;;;;;;;3.90;1.00;;;12.30;99.90;;;;;;4994496;28;20592;-74
2021/10/06 08:55:28;;;;;;;0.83;0.70;;;12.30;99.90;;;;;;4994424;28;20234;-74
2021/10/06 08:57:56;;;;;;;5.87;1.30;;;12.30;99.90;;;;;;4994146;28;20708;-74
2021/10/06 09:00:25;;;;;;;3.50;0.90;;;12.40;99.90;;;;;;4994413;28;20211;-76
2021/10/06 09:02:52;;;;;;;2.60;0.80;;;12.40;99.90;;;;;;4994541;28;20211;-74
2021/10/06 09:05:22;;;;;;;3.63;0.60;;;12.40;99.90;;;;;;4994270;28;20569;-74
2021/10/06 09:07:57;;;;;;;2.83;0.90;;;12.30;99.90;;;;;;4994320;28;20222;-74
2021/10/06 09:10:24;;;;;;;1.90;0.87;;;12.30;99.90;;;;;;4994320;28;20213;-75
2021/10/06 09:12:58;;;;;;;2.57;0.73;;;12.40;99.90;;;;;;4994282;28;20202;-74
2021/10/06 09:15:28;;;;;;;2.10;0.70;;;12.30;99.90;;;;;;4994233;28;20226;-74
2021/10/06 09:17:57;;;;;;;1.30;1.07;;;12.30;99.90;;;;;;4994312;28;20226;-75
2021/10/06 09:20:34;;;;;;;1.13;0.60;;;12.20;99.90;;;;;;4994196;28;20210;-75
2021/10/06 09:23:03;;;;;;;2.40;0.70;;;12.30;99.90;;;;;;4994154;28;20202;-74
2021/10/06 09:25:36;;;;;;;3.90;0.80;;;12.20;99.90;;;;;;4994191;28;20207;-74
2021/10/06 09:28:07;;;;;;;1.40;0.60;;;12.20;99.90;;;;;;4993774;28;20716;-74
2021/10/06 09:30:35;;;;;;;1.27;0.60;;;12.10;99.90;;;;;;4994251;28;20207;-75
2021/10/06 09:33:04;;;;;;;1.63;0.80;;;12.20;99.90;;;;;;4993926;28;20642;-74
2021/10/06 09:35:31;;;;;;;4.90;1.03;;;12.20;99.90;;;;;;4993966;28;20230;-74
2021/10/06 09:37:59;;;;;;;0.97;0.77;;;12.20;99.90;;;;;;4993836;28;20233;-74
2021/10/06 09:40:28;;;;;;;2.07;0.70;;;12.30;99.90;;;;;;4993888;28;20214;-73
2021/10/06 09:42:57;;;;;;;1.90;0.80;;;12.30;99.90;;;;;;4993881;28;20253;-73
2021/10/06 09:45:27;;;;;;;4.83;0.80;;;12.20;99.90;;;;;;4993938;28;20309;-73
2021/10/06 09:48:10;;;;;;;1.00;0.70;;;12.20;99.90;;;;;;4993902;28;20223;-74
2021/10/06 09:50:39;;;;;;;2.97;0.90;;;12.20;99.90;;;;;;4954154;28;1142724;-74
2021/10/06 09:53:12;;;;;;;2.30;1.00;;;12.20;99.90;;;;;;4994307;28;20213;-74
2021/10/06 09:55:40;;;;;;;2.97;0.80;;;12.20;99.90;;;;;;4994317;28;20234;-74
2021/10/06 09:58:09;;;;;;;1.90;0.90;;;12.10;99.90;;;;;;4994181;28;20227;-74
2021/10/06 10:00:37;;;;;;;2.30;1.00;;;12.10;99.90;;;;;;4994387;28;20629;-74
2021/10/06 10:03:06;;;;;;;2.53;1.30;;;12.10;99.90;;;;;;4994523;28;20245;-74
2021/10/06 10:05:36;;;;;;;2.17;0.97;;;12.20;99.90;;;;;;4994234;28;20229;-73
2021/10/06 10:08:04;;;;;;;3.07;0.83;;;12.30;99.90;;;;;;4994155;28;20231;-74
2021/10/06 10:10:33;;;;;;;4.20;1.30;;;12.30;99.90;;;;;;4994384;28;20202;-74
2021/10/06 10:13:01;;;;;;;3.23;0.83;;;12.30;99.90;;;;;;4994104;28;20207;-74
2021/10/06 10:15:29;;;;;;;2.70;1.03;;;12.30;99.90;;;;;;4994106;28;20269;-73
2021/10/06 10:17:59;;;;;;;1.50;0.80;;;12.20;99.90;;;;;;4993905;28;20226;-74
2021/10/06 10:20:32;;;;;;;4.23;1.00;;;12.20;99.90;;;;;;4994350;28;20210;-73
2021/10/06 10:23:01;;;;;;;1.13;0.93;;;12.20;99.90;;;;;;4994148;28;20217;-74
2021/10/06 10:25:30;;;;;;;0.90;0.70;;;12.20;99.90;;;;;;4994172;28;20214;-75
2021/10/06 10:28:02;;;;;;;2.73;0.80;;;12.20;99.90;;;;;;4993832;28;20313;-74
2021/10/06 10:30:30;;;;;;;2.63;0.73;;;12.30;99.90;;;;;;4993825;28;20584;-74
2021/10/06 10:32:58;;;;;;;1.07;0.80;;;12.40;99.90;;;;;;4993843;28;20301;-74
2021/10/06 10:35:36;;;;;;;3.30;2.00;;;12.50;99.90;;;;;;4994036;28;20229;-74
2021/10/06 10:38:19;;;;;;;1.10;0.90;;;12.60;99.90;;;;;;4993722;28;20222;-74
2021/10/06 10:40:54;;;;;;;0.73;0.70;;;12.80;99.90;;;;;;4993716;28;20214;-74
2021/10/06 10:43:23;;;;;;;2.03;0.93;;;12.60;99.90;;;;;;4993908;28;20202;-74
2021/10/06 10:45:52;;;;;;;3.07;0.70;;;12.70;99.90;;;;;;4993858;28;20210;-74
2021/10/06 10:48:21;;;;;;;1.33;0.73;;;12.50;99.90;;;;;;4993849;28;20230;-74
2021/10/06 10:51:11;;;;;;;2.57;0.80;;;12.50;99.90;;;;;;4993382;28;20224;-75
2021/10/06 10:53:58;;;;;;;1.23;0.80;;;12.50;99.90;;;;;;4993600;28;20294;-74
2021/10/06 10:56:27;;;;;;;1.07;0.70;;;12.60;99.90;;;;;;4993760;28;20234;-74
2021/10/06 10:59:06;;;;;;;0.97;0.70;;;12.60;99.90;;;;;;4993564;28;20226;-74
2021/10/06 11:01:53;;;;;;;1.50;0.80;;;12.40;99.90;;;;;;4993056;28;20569;-73
2021/10/06 11:04:24;;;;;;;0.70;0.70;;;12.50;99.90;;;;;;4993566;28;20692;-74
2021/10/06 11:06:54;;;;;;;0.93;0.83;;;12.50;99.90;;;;;;4976307;28;20261;-76
2021/10/06 11:09:42;;;;;;;0.90;0.80;;;12.60;99.90;;;;;;4993404;28;20206;-74
2021/10/06 11:12:35;;;;;;;1.83;1.00;;;12.70;99.90;;;;;;4993386;28;20296;-75
2021/10/06 11:15:25;;;;;;;1.60;1.00;;;12.70;99.90;;;;;;4993640;28;20237;-76
2021/10/06 11:18:12;;;;;;;15.00;6.93;;;12.80;99.90;;;;;;4993420;28;20226;-76
2021/10/06 11:20:49;;;;;;;1.70;1.00;;;12.90;99.90;;;;;;4993294;28;20214;-76
2021/10/06 11:23:39;;;;;;;1.70;0.97;;;13.00;99.90;;;;;;4993511;28;20210;-75
2021/10/06 11:26:08;;;;;;;2.57;1.83;;;13.10;99.90;;;;;;4993470;28;20207;-76
2021/10/06 11:28:38;;;;;;;1.70;1.00;;;13.00;99.90;;;;;;4993269;28;20230;-76
2021/10/06 11:31:05;;;;;;;2.80;1.03;;;13.00;99.90;;;;;;4993335;28;20216;-76
2021/10/06 11:33:32;;;;;;;2.47;0.97;;;13.00;99.90;;;;;;4994489;28;20202;-75
2021/10/06 11:36:08;;;;;;;2.17;0.97;;;13.10;99.90;;;;;;4993785;28;20237;-75
2021/10/06 11:38:34;;;;;;;6.37;1.10;;;13.10;99.90;;;;;;4993450;28;20226;-76
2021/10/06 11:41:03;;;;;;;1.17;1.03;;;13.20;99.90;;;;;;4993343;28;20293;-76
2021/10/06 11:43:41;;;;;;;1.93;1.00;;;13.30;99.90;;;;;;4993290;28;20665;-76
2021/10/06 11:46:12;;;;;;;3.03;0.80;;;13.40;99.90;;;;;;4993103;28;20310;-75
2021/10/06 11:48:39;;;;;;;1.53;1.00;;;13.50;99.90;;;;;;4992992;28;20232;-76
2021/10/06 11:51:06;;;;;;;4.30;1.00;;;13.40;99.90;;;;;;4993016;28;20273;-76
2021/10/06 11:53:40;;;;;;;2.50;1.00;;;13.50;99.90;;;;;;4992972;28;20207;-77
2021/10/06 11:56:09;;;;;;;1.00;0.80;;;13.40;99.90;;;;;;4993796;28;20229;-77
2021/10/06 11:58:36;;;;;;;2.67;0.80;;;13.60;99.90;;;;;;4992865;28;20719;-76
2021/10/06 12:01:05;;;;;;;2.60;1.00;;;13.80;99.90;;;;;;4993122;28;20222;-77
2021/10/06 12:03:39;;;;;;;1.30;0.90;;;14.00;99.90;;;;;;4993017;28;20264;-76
2021/10/06 12:06:08;;;;;;;2.67;0.80;;;14.10;99.90;;;;;;4992967;28;20580;-77
2021/10/06 12:08:35;;;;;;;2.77;0.93;;;14.10;99.90;;;;;;4992708;28;20672;-76
2021/10/06 12:11:04;;;;;;;0.80;0.60;;;14.20;99.90;;;;;;4993039;28;20245;-74
2021/10/06 12:13:35;;;;;;;0.90;0.60;;;14.10;99.90;;;;;;4994052;28;20564;-76
2021/10/06 12:16:18;;;;;;;0.93;0.70;;;14.10;99.90;;;;;;4996378;28;20234;-77
2021/10/06 12:18:56;;;;;;;1.53;0.60;;;14.20;99.90;;;;;;4996054;28;20222;-77
2021/10/06 12:21:23;;;;;;;1.53;0.50;;;14.10;99.90;;;;;;4996110;28;20206;-76
2021/10/06 12:23:49;;;;;;;2.10;0.60;;;14.10;99.90;;;;;;4996429;28;20203;-77
2021/10/06 12:26:17;;;;;;;1.90;0.50;;;14.30;99.90;;;;;;4996087;28;20297;-76
2021/10/06 12:28:56;;;;;;;0.60;0.40;;;14.40;99.90;;;;;;4996055;28;20317;-76
2021/10/06 12:31:29;;;;;;;0.70;0.47;;;14.50;99.90;;;;;;4995875;28;20534;-76
2021/10/06 12:34:07;;;;;;;1.17;0.50;;;14.60;99.90;;;;;;4996207;28;20206;-75
2021/10/06 12:36:34;;;;;;;0.80;0.50;;;14.70;99.90;;;;;;4995861;28;20230;-76
2021/10/06 12:39:03;;;;;;;1.10;0.60;;;14.70;99.90;;;;;;4995648;28;20226;-75
2021/10/06 12:41:39;;;;;;;0.77;0.50;;;14.70;99.90;;;;;;4995768;28;20207;-76
2021/10/06 12:44:18;;;;;;;1.97;0.77;;;14.70;99.90;;;;;;4996047;28;20202;-75
2021/10/06 12:46:45;;;;;;;1.00;0.70;;;14.90;99.90;;;;;;4995811;28;20207;-75
2021/10/06 12:49:13;;;;;;;2.73;0.97;;;15.20;99.90;;;;;;4995554;28;20673;-75
2021/10/06 12:51:42;;;;;;;0.50;0.50;;;15.50;99.90;;;;;;4995305;28;20693;-75
2021/10/06 12:54:16;;;;;;;0.83;0.40;;;15.60;99.90;;;;;;4995419;28;20206;-75
2021/10/06 12:56:51;;;;;;;0.63;0.57;;;15.70;99.90;;;;;;4995643;28;20233;-75
2021/10/06 12:59:28;;;;;;;0.83;0.50;;;15.50;99.90;;;;;;4995383;28;20240;-76
2021/10/06 13:01:55;;;;;;;1.63;0.60;;;15.20;99.90;;;;;;4995670;28;20293;-75
2021/10/06 13:04:22;;;;;;;0.97;0.50;;;15.10;99.90;;;;;;4995387;28;20309;-75
2021/10/06 13:06:51;;;;;;;0.87;0.50;;;15.00;99.90;;;;;;4995044;28;20210;-75
2021/10/06 13:09:20;;;;;;;1.07;0.60;;;14.80;99.90;;;;;;4995753;28;20565;-75
2021/10/06 13:11:49;;;;;;;0.80;0.60;;;14.70;99.90;;;;;;4995572;28;20206;-75
2021/10/06 13:14:16;;;;;;;1.53;0.70;;;14.60;99.90;;;;;;4995175;28;20683;-74
2021/10/06 13:16:45;;;;;;;1.13;0.80;;;14.40;99.90;;;;;;4994962;28;20234;-75
2021/10/06 13:19:13;;;;;;;2.80;0.80;;;14.40;99.90;;;;;;4994960;28;20289;-75
2021/10/06 13:21:42;;;;;;;2.73;1.00;;;14.50;99.90;;;;;;4995101;28;20578;-75
2021/10/06 13:24:09;;;;;;;2.07;0.87;;;14.50;99.90;;;;;;4995163;28;20297;-75
2021/10/06 13:26:37;;;;;;;1.90;0.63;;;14.50;99.90;;;;;;4994577;28;20217;-75
2021/10/06 13:29:04;;;;;;;2.00;0.73;;;14.60;99.90;;;;;;4995063;28;20233;-75
2021/10/06 13:31:32;;;;;;;1.50;0.60;;;14.80;99.90;;;;;;4995231;28;20217;-75
2021/10/06 13:34:01;;;;;;;1.77;0.83;;;14.80;99.90;;;;;;4995044;28;20202;-75
2021/10/06 13:36:27;;;;;;;3.37;0.70;;;14.80;99.90;;;;;;4994693;28;20261;-74
2021/10/06 13:38:54;;;;;;;0.80;0.60;;;14.70;99.90;;;;;;4994903;28;20230;-75
2021/10/06 13:41:21;;;;;;;2.23;0.70;;;14.80;99.90;;;;;;4994778;28;20228;-75
2021/10/06 13:43:48;;;;;;;0.90;0.60;;;14.90;99.90;;;;;;4994930;28;20743;-75
2021/10/06 13:46:18;;;;;;;2.33;0.90;;;14.60;99.90;;;;;;4994610;28;20301;-75
2021/10/06 13:48:47;;;;;;;2.10;0.70;;;14.70;99.90;;;;;;4995328;28;20223;-75
2021/10/06 13:51:17;;;;;;;2.70;0.50;;;14.80;99.90;;;;;;4994581;28;20360;-75
2021/10/06 13:53:44;;;;;;;3.73;0.67;;;14.80;99.90;;;;;;4994668;28;20288;-75
2021/10/06 13:56:12;;;;;;;2.87;0.70;;;14.80;99.90;;;;;;4994651;28;20207;-75
2021/10/06 13:58:38;;;;;;;2.67;0.53;;;14.70;99.90;;;;;;4994393;28;20240;-75
2021/10/06 14:01:06;;;;;;;3.37;0.67;;;14.70;99.90;;;;;;4994388;28;20297;-74
2021/10/06 14:03:33;;;;;;;2.67;0.83;;;14.60;99.90;;;;;;4994574;28;20216;-75
2021/10/06 14:06:00;;;;;;;2.77;0.70;;;14.70;99.90;;;;;;4994480;28;20215;-75
2021/10/06 14:08:28;;;;;;;2.37;0.77;;;14.70;99.90;;;;;;4994136;28;20241;-75
2021/10/06 14:10:55;;;;;;;1.63;0.40;;;14.70;99.90;;;;;;4993640;28;20217;-75
2021/10/06 14:13:22;;;;;;;0.90;0.70;;;14.80;99.90;;;;;;4993490;28;20203;-76
2021/10/06 14:15:49;;;;;;;1.17;0.50;;;14.80;99.90;;;;;;4993902;28;20213;-75
2021/10/06 14:18:16;;;;;;;1.37;0.60;;;14.50;99.90;;;;;;4993661;28;20646;-75
2021/10/06 14:20:43;;;;;;;2.10;0.77;;;14.50;99.90;;;;;;4994504;28;20206;-75
2021/10/06 14:23:10;;;;;;;1.90;0.50;;;14.40;99.90;;;;;;4994090;28;20237;-75
2021/10/06 14:25:39;;;;;;;1.33;0.60;;;14.20;99.90;;;;;;4994046;28;20207;-75
2021/10/06 14:28:06;;;;;;;3.33;1.07;;;14.10;99.90;;;;;;4993782;28;20226;-74
2021/10/06 14:30:33;;;;;;;3.23;0.70;;;14.00;99.90;;;;;;4994248;28;20211;-74
2021/10/06 14:33:00;;;;;;;2.37;0.60;;;13.90;99.90;;;;;;4993931;28;20217;-74
2021/10/06 14:35:27;;;;;;;1.00;0.60;;;13.90;99.90;;;;;;4993901;28;20212;-74
2021/10/06 14:37:55;;;;;;;1.27;0.47;;;13.90;99.90;;;;;;4992664;28;20238;-75
2021/10/06 14:40:23;;;;;;;3.43;0.87;;;14.00;99.90;;;;;;4993660;28;20206;-75
2021/10/06 14:42:51;;;;;;;0.73;0.53;;;14.10;99.90;;;;;;4994051;28;20206;-74
2021/10/06 14:45:23;;;;;;;0.83;0.60;;;14.10;99.90;;;;;;4993945;28;20208;-75
2021/10/06 14:47:50;;;;;;;0.60;0.50;;;14.20;99.90;;;;;;4994089;28;20233;-75
2021/10/06 14:50:17;;;;;;;1.27;0.80;;;14.20;99.90;;;;;;4993848;28;20222;-75
2021/10/06 14:52:44;;;;;;;1.00;0.70;;;14.20;99.90;;;;;;4993413;28;20681;-75
2021/10/06 14:55:11;;;;;;;1.10;0.90;;;14.30;99.90;;;;;;4993434;28;20210;-75
2021/10/06 14:57:38;;;;;;;1.20;0.53;;;14.30;99.90;;;;;;4993789;28;20325;-74
2021/10/06 15:00:10;;;;;;;0.97;0.60;;;14.30;99.90;;;;;;4993846;28;20202;-76
2021/10/06 15:02:38;;;;;;;1.97;0.73;;;14.30;99.90;;;;;;4993579;28;20206;-75
2021/10/06 15:05:05;;;;;;;2.63;0.70;;;14.30;99.90;;;;;;4993443;28;20206;-75
2021/10/06 15:07:32;;;;;;;4.97;1.00;;;14.30;99.90;;;;;;4993404;28;20262;-75
2021/10/06 15:09:59;;;;;;;2.73;0.90;;;14.40;99.90;;;;;;4993944;28;20234;-75
2021/10/06 15:12:26;;;;;;;1.80;0.70;;;14.30;99.90;;;;;;4993583;28;20628;-74
2021/10/06 15:14:53;;;;;;;2.53;0.80;;;14.20;99.90;;;;;;4993094;28;20219;-75
2021/10/06 15:17:22;;;;;;;1.30;0.90;;;14.10;99.90;;;;;;4993164;28;20265;-76
2021/10/06 15:19:49;;;;;;;1.10;0.67;;;14.20;99.90;;;;;;4993821;28;20207;-75
2021/10/06 15:22:15;;;;;;;1.10;0.77;;;14.00;99.90;;;;;;4993315;28;20245;-75
2021/10/06 15:24:42;;;;;;;1.37;0.80;;;14.00;99.90;;;;;;4993630;28;20246;-77
2021/10/06 15:27:09;;;;;;;3.30;1.03;;;14.00;99.90;;;;;;4993460;28;20317;-76
2021/10/06 15:29:36;;;;;;;2.37;1.17;;;13.90;99.90;;;;;;4993329;28;20202;-76
2021/10/06 15:32:04;;;;;;;19.73;12.43;;;13.90;99.90;;;;;;4993097;28;20207;-76
2021/10/06 15:34:32;;;;;;;27.53;11.83;;;13.90;99.90;;;;;;4993108;28;20206;-75
2021/10/06 15:36:59;;;;;;;4.77;1.93;;;13.90;99.90;;;;;;4993063;28;20217;-77
2021/10/06 15:39:26;;;;;;;4.40;3.30;;;13.90;99.90;;;;;;4993443;28;20211;-76
2021/10/06 15:41:54;;;;;;;1.47;1.00;;;14.00;99.90;;;;;;4993385;28;20206;-75
2021/10/06 15:44:21;;;;;;;3.90;0.90;;;13.90;99.90;;;;;;4993654;28;20217;-76
2021/10/06 15:46:50;;;;;;;10.47;4.13;;;13.90;99.90;;;;;;4992996;28;20241;-75
2021/10/06 15:49:17;;;;;;;3.33;2.17;;;13.90;99.90;;;;;;4995416;28;20265;-76
2021/10/06 15:51:45;;;;;;;1.70;1.40;;;13.80;99.90;;;;;;4996464;28;20301;-75
2021/10/06 15:54:12;;;;;;;1.80;1.47;;;13.90;99.90;;;;;;4996619;28;20214;-75
2021/10/06 15:56:40;;;;;;;2.47;1.83;;;14.00;99.90;;;;;;4996912;28;20206;-75
2021/10/06 15:59:07;;;;;;;11.87;4.43;;;14.00;99.90;;;;;;4996509;28;20234;-77
2021/10/06 16:01:36;;;;;;;7.47;3.10;;;14.00;99.90;;;;;;4996796;28;20212;-76
2021/10/06 16:04:03;;;;;;;7.77;2.70;;;13.90;99.90;;;;;;4996515;28;20211;-75
2021/10/06 16:06:30;;;;;;;6.70;5.20;;;14.00;99.90;;;;;;4996960;28;20297;-75
2021/10/06 16:08:58;;;;;;;2.03;1.83;;;14.00;99.90;;;;;;4996563;28;20234;-76
2021/10/06 16:11:25;;;;;;;2.20;1.30;;;14.00;99.90;;;;;;4996594;28;20207;-75
2021/10/06 16:13:52;;;;;;;4.23;2.20;;;14.10;99.90;;;;;;4996497;28;20604;-75
2021/10/06 16:16:19;;;;;;;22.73;8.30;;;14.20;99.90;;;;;;4996153;28;20293;-77
2021/10/06 16:18:46;;;;;;;10.83;4.40;;;14.20;99.90;;;;;;4996497;28;20285;-76
2021/10/06 16:21:13;;;;;;;4.37;1.97;;;14.30;99.90;;;;;;4996579;28;20213;-76
2021/10/06 16:23:41;;;;;;;3.43;1.70;;;14.30;99.90;;;;;;4996220;28;20225;-77
2021/10/06 16:26:09;;;;;;;1.60;1.20;;;14.20;99.90;;;;;;4996224;28;20281;-75
2021/10/06 16:28:36;;;;;;;3.70;1.13;;;14.20;99.90;;;;;;4996198;28;20697;-75
2021/10/06 16:31:06;;;;;;;5.17;2.30;;;14.00;99.90;;;;;;4996151;28;20210;-75
2021/10/06 16:33:34;;;;;;;8.93;4.60;;;14.00;99.90;;;;;;4996153;28;20207;-76
2021/10/06 16:36:01;;;;;;;9.10;3.50;;;14.00;99.90;;;;;;4996073;28;20218;-75
2021/10/06 16:38:27;;;;;;;3.23;1.70;;;14.00;99.90;;;;;;4995837;28;20240;-76
2021/10/06 16:40:54;;;;;;;3.23;1.37;;;14.00;99.90;;;;;;4995984;28;20202;-75
2021/10/06 16:43:23;;;;;;;2.30;1.60;;;14.00;99.90;;;;;;4995622;28;20565;-76
2021/10/06 16:45:52;;;;;;;2.17;1.30;;;13.90;99.90;;;;;;4995975;28;20265;-75
2021/10/06 16:48:20;;;;;;;4.23;1.20;;;13.90;99.90;;;;;;4995753;28;20233;-75
2021/10/06 16:50:48;;;;;;;3.20;1.63;;;13.80;99.90;;;;;;4995657;28;20589;-75
2021/10/06 16:53:14;;;;;;;3.77;1.30;;;13.80;99.90;;;;;;4995625;28;20242;-75
2021/10/06 16:55:41;;;;;;;2.33;1.27;;;13.90;99.90;;;;;;4995521;28;20213;-75
2021/10/06 16:58:08;;;;;;;3.63;1.57;;;13.80;99.90;;;;;;4995404;28;20252;-75
2021/10/06 17:00:36;;;;;;;2.93;1.70;;;13.70;99.90;;;;;;4994646;28;20293;-75
2021/10/06 17:03:03;;;;;;;2.80;1.63;;;13.70;99.90;;;;;;4995824;28;20684;-75
2021/10/06 17:05:30;;;;;;;1.83;1.33;;;13.60;99.90;;;;;;4995577;28;20301;-75
2021/10/06 17:07:57;;;;;;;3.13;1.30;;;13.70;99.90;;;;;;4995082;28;20230;-75
2021/10/06 17:10:24;;;;;;;3.77;1.40;;;13.80;99.90;;;;;;4995210;28;20560;-76
2021/10/06 17:12:51;;;;;;;3.83;1.63;;;13.80;99.90;;;;;;4995905;28;20202;-76
2021/10/06 17:15:18;;;;;;;2.30;1.87;;;13.70;99.90;;;;;;4995574;28;20214;-76
2021/10/06 17:17:46;;;;;;;4.67;2.20;;;13.90;99.90;;;;;;4995295;28;20245;-76
2021/10/06 17:20:13;;;;;;;5.90;2.20;;;14.00;99.90;;;;;;4995291;28;20301;-76
2021/10/06 17:22:41;;;;;;;4.03;1.73;;;13.90;99.90;;;;;;4995068;28;20206;-76
2021/10/06 17:25:09;;;;;;;3.80;1.60;;;13.80;99.90;;;;;;4995178;28;20668;-76
2021/10/06 17:27:37;;;;;;;2.97;1.73;;;13.90;99.90;;;;;;4995147;28;20233;-76
2021/10/06 17:30:05;;;;;;;2.70;1.67;;;13.90;99.90;;;;;;4994884;28;20220;-76
2021/10/06 17:32:32;;;;;;;3.60;1.80;;;13.90;99.90;;;;;;4977726;28;20217;-76
2021/10/06 17:35:00;;;;;;;2.77;1.67;;;13.90;99.90;;;;;;4994982;28;20206;-76
2021/10/06 17:37:30;;;;;;;2.00;1.50;;;13.80;99.90;;;;;;4994728;28;20313;-75
2021/10/06 17:39:57;;;;;;;4.67;1.63;;;13.70;99.90;;;;;;4995087;28;20259;-76
2021/10/06 17:42:24;;;;;;;3.13;2.40;;;13.70;99.90;;;;;;4995158;28;20210;-76
2021/10/06 17:44:51;;;;;;;2.87;1.50;;;13.70;99.90;;;;;;4994997;28;20297;-76
2021/10/06 17:47:17;;;;;;;3.53;1.93;;;13.80;99.90;;;;;;4994744;28;20226;-76
2021/10/06 17:49:45;;;;;;;4.77;2.00;;;13.80;99.90;;;;;;4994844;28;20206;-76
2021/10/06 17:52:13;;;;;;;6.80;1.93;;;13.80;99.90;;;;;;4994301;28;20218;-76
2021/10/06 17:54:40;;;;;;;16.83;7.17;;;13.80;99.90;;;;;;4994582;28;20210;-75
2021/10/06 17:57:07;;;;;;;6.30;2.03;;;13.80;99.90;;;;;;4994380;28;20222;-76
2021/10/06 17:59:34;;;;;;;2.87;1.87;;;13.80;99.90;;;;;;4994283;28;20234;-76
2021/10/06 18:02:01;;;;;;;6.63;2.10;;;13.70;99.90;;;;;;4994399;28;20687;-75
2021/10/06 18:04:28;;;;;;;4.03;2.27;;;13.70;99.90;;;;;;4994586;28;20661;-76
2021/10/06 18:06:55;;;;;;;3.57;1.97;;;13.70;99.90;;;;;;4994203;28;20202;-76
2021/10/06 18:09:23;;;;;;;3.17;2.07;;;13.60;99.90;;;;;;4994486;28;20347;-76
2021/10/06 18:11:50;;;;;;;4.50;2.10;;;13.60;99.90;;;;;;4993920;28;20305;-76
2021/10/06 18:14:17;;;;;;;3.70;2.33;;;13.60;99.90;;;;;;4994300;28;20225;-76
2021/10/06 18:16:44;;;;;;;6.23;3.10;;;13.60;99.90;;;;;;4994175;28;20699;-76
2021/10/06 18:19:12;;;;;;;5.73;2.67;;;13.70;99.90;;;;;;4994037;28;20245;-76
2021/10/06 18:21:39;;;;;;;3.07;2.10;;;13.80;99.90;;;;;;4994409;28;20297;-75
2021/10/06 18:24:08;;;;;;;3.23;2.00;;;13.80;99.90;;;;;;4994236;28;20213;-75
2021/10/06 18:26:37;;;;;;;4.47;2.30;;;13.70;99.90;;;;;;4994172;28;20213;-74
2021/10/06 18:29:04;;;;;;;4.60;2.43;;;13.70;99.90;;;;;;4993834;28;20230;-76
2021/10/06 18:31:31;;;;;;;4.60;2.63;;;13.70;99.90;;;;;;4993969;28;20206;-75
2021/10/06 18:33:58;;;;;;;3.30;2.53;;;13.60;99.90;;;;;;4994007;28;20306;-75
2021/10/06 18:36:25;;;;;;;4.07;2.30;;;13.60;99.90;;;;;;4993979;28;20230;-75
2021/10/06 18:38:52;;;;;;;4.33;3.00;;;13.70;99.90;;;;;;4995424;28;20242;-75
2021/10/06 18:41:19;;;;;;;2.97;2.33;;;13.60;99.90;;;;;;4996266;28;20684;-76
2021/10/06 18:43:48;;;;;;;2.40;2.00;;;13.60;99.90;;;;;;4995816;28;20206;-76
2021/10/06 18:46:15;;;;;;;4.50;2.43;;;13.70;99.90;;;;;;4994852;28;20297;-77
2021/10/06 18:48:42;;;;;;;3.13;1.93;;;13.70;99.90;;;;;;4996033;28;20223;-76
2021/10/06 18:51:09;;;;;;;3.93;2.23;;;13.70;99.90;;;;;;4993769;28;20230;-75
2021/10/06 18:53:36;;;;;;;4.03;2.00;;;13.60;99.90;;;;;;4993592;28;20695;-75
2021/10/06 18:56:04;;;;;;;2.93;1.80;;;13.60;99.90;;;;;;4993877;28;20203;-75
2021/10/06 18:58:31;;;;;;;4.07;2.00;;;13.60;99.90;;;;;;4993424;28;20234;-75
2021/10/06 19:00:59;;;;;;;3.60;2.10;;;13.70;99.90;;;;;;4993526;28;20212;-76
2021/10/06 19:03:26;;;;;;;2.07;1.77;;;13.80;99.90;;;;;;4993743;28;20679;-76
2021/10/06 19:05:53;;;;;;;3.03;2.00;;;13.70;99.90;;;;;;4993551;28;20312;-75
2021/10/06 19:08:20;;;;;;;4.53;2.30;;;13.70;99.90;;;;;;4993636;28;20425;-75
2021/10/06 19:10:47;;;;;;;4.87;2.43;;;13.70;99.90;;;;;;4993740;28;20297;-75
2021/10/06 19:13:14;;;;;;;5.93;2.47;;;13.70;99.90;;;;;;4993476;28;20210;-76
2021/10/06 19:15:43;;;;;;;5.13;2.83;;;13.70;99.90;;;;;;4993601;28;20206;-75
2021/10/06 19:18:11;;;;;;;4.63;2.43;;;13.70;99.90;;;;;;4993452;28;20259;-75
2021/10/06 19:20:40;;;;;;;7.17;3.50;;;13.70;99.90;;;;;;4993548;28;20203;-75
2021/10/06 19:23:08;;;;;;;6.27;3.27;;;13.80;99.90;;;;;;4994207;28;20206;-76
2021/10/06 19:25:36;;;;;;;6.07;3.80;;;13.80;99.90;;;;;;4997817;28;20207;-75
2021/10/06 19:28:04;;;;;;;4.03;2.77;;;13.90;99.90;;;;;;4997047;28;20234;-75
2021/10/06 19:30:31;;;;;;;6.90;2.97;;;13.90;99.90;;;;;;4997458;28;20213;-75
2021/10/06 19:32:58;;;;;;;6.73;3.30;;;13.90;99.90;;;;;;4997590;28;20292;-75
2021/10/06 19:35:30;;;;;;;3.67;2.90;;;13.90;99.90;;;;;;4997439;28;20220;-75
2021/10/06 19:37:57;;;;;;;4.10;2.60;;;13.90;99.90;;;;;;4997200;28;20264;-76
2021/10/06 19:40:24;;;;;;;4.80;2.43;;;14.00;99.90;;;;;;4996924;28;20656;-75
2021/10/06 19:42:51;;;;;;;5.20;2.90;;;14.00;99.90;;;;;;4997447;28;20233;-76
2021/10/06 19:45:18;;;;;;;3.83;2.53;;;13.90;99.90;;;;;;4997321;28;20661;-76
2021/10/06 19:47:46;;;;;;;5.27;2.50;;;13.90;99.90;;;;;;4997441;28;20227;-76
2021/10/06 19:50:13;;;;;;;3.20;2.60;;;13.90;99.90;;;;;;4996825;28;20572;-75
2021/10/06 19:52:43;;;;;;;3.17;2.37;;;14.00;99.90;;;;;;4996950;28;20213;-75
2021/10/06 19:55:12;;;;;;;3.93;2.30;;;14.10;99.90;;;;;;4997186;28;20577;-75
2021/10/06 19:57:42;;;;;;;3.10;2.37;;;14.00;99.90;;;;;;4997124;28;20230;-75
2021/10/06 20:00:11;;;;;;;6.30;2.53;;;13.90;99.90;;;;;;4997030;28;20292;-75
2021/10/06 20:02:38;;;;;;;5.50;1.90;;;14.00;99.90;;;;;;5000360;28;20210;-76
2021/10/06 20:05:05;;;;;;;3.23;2.00;;;14.00;99.90;;;;;;4999897;28;20298;-77
2021/10/06 20:07:32;;;;;;;3.87;1.97;;;14.00;99.90;;;;;;4998560;28;20226;-77
2021/10/06 20:10:00;;;;;;;3.87;2.10;;;14.00;99.90;;;;;;4996739;28;20202;-77
2021/10/06 20:12:27;;;;;;;2.87;2.10;;;14.10;99.90;;;;;;4996754;28;20305;-76
2021/10/06 20:14:54;;;;;;;4.63;2.17;;;14.00;99.90;;;;;;4996257;28;20202;-74
2021/10/06 20:17:21;;;;;;;2.13;1.60;;;13.90;99.90;;;;;;4996330;28;20235;-75
2021/10/06 20:19:49;;;;;;;3.20;1.73;;;14.00;99.90;;;;;;4996471;28;20234;-75
2021/10/06 20:22:15;;;;;;;2.90;1.80;;;14.00;99.90;;;;;;4996247;28;20614;-75
2021/10/06 20:24:42;;;;;;;1.93;1.73;;;14.00;99.90;;;;;;4996659;28;20236;-75
2021/10/06 20:27:12;;;;;;;4.33;1.97;;;13.90;99.90;;;;;;4996559;28;20226;-75
2021/10/06 20:29:39;;;;;;;1.97;1.50;;;14.00;99.90;;;;;;4996407;28;20199;-75
